createdAt,value
2022-12-08T00:01:19.377Z,3.97
2022-12-08T00:03:45.972Z,4.40
2022-12-08T00:06:39.526Z,4.83
2022-12-08T00:09:24.684Z,4.50
2022-12-08T00:11:54.337Z,3.30
2022-12-08T00:14:23.055Z,3.50
2022-12-08T00:16:49.627Z,5.27
2022-12-08T00:19:16.341Z,3.97
2022-12-08T00:21:42.689Z,4.07
2022-12-08T00:24:09.203Z,3.77
2022-12-08T00:26:36.642Z,3.90
2022-12-08T00:29:06.046Z,4.10
2022-12-08T00:31:33.526Z,4.67
2022-12-08T00:34:00.525Z,4.83
2022-12-08T00:36:27.340Z,5.77
2022-12-08T00:38:53.707Z,5.40
2022-12-08T00:41:41.858Z,4.27
2022-12-08T00:44:08.904Z,5.27
2022-12-08T00:46:35.292Z,3.93
2022-12-08T00:49:02.129Z,4.63
2022-12-08T00:51:28.728Z,4.20
2022-12-08T00:53:55.154Z,4.10
2022-12-08T00:56:21.509Z,4.63
2022-12-08T00:58:48.108Z,4.47
2022-12-08T01:01:15.611Z,4.60
2022-12-08T01:03:42.286Z,3.90
2022-12-08T01:06:08.903Z,5.00
2022-12-08T01:08:39.882Z,4.73
2022-12-08T01:11:07.311Z,4.00
2022-12-08T01:13:35.037Z,4.63
2022-12-08T01:16:02.816Z,4.63
2022-12-08T01:18:29.946Z,4.23
2022-12-08T01:21:01.571Z,4.03
2022-12-08T01:23:28.451Z,3.77
2022-12-08T01:25:54.845Z,3.90
2022-12-08T01:28:21.297Z,5.27
2022-12-08T01:30:47.701Z,4.43
2022-12-08T01:33:14.271Z,4.50
2022-12-08T01:35:40.692Z,3.60
2022-12-08T01:38:07.098Z,5.90
2022-12-08T01:40:33.594Z,3.80
2022-12-08T01:42:59.978Z,5.07
2022-12-08T01:45:27.767Z,4.50
2022-12-08T01:47:57.262Z,5.03
2022-12-08T01:50:23.934Z,5.53
2022-12-08T01:52:52.659Z,4.97
2022-12-08T01:55:25.455Z,4.40
2022-12-08T01:57:54.117Z,4.73
2022-12-08T02:00:21.684Z,4.13
2022-12-08T02:02:57.412Z,5.00
2022-12-08T02:05:25.839Z,4.38
2022-12-08T02:07:52.391Z,4.17
2022-12-08T02:10:21.214Z,4.87
2022-12-08T02:12:48.617Z,5.37
2022-12-08T02:15:15.373Z,4.03
2022-12-08T02:17:59.620Z,5.43
2022-12-08T02:20:30.812Z,5.10
2022-12-08T02:23:05.474Z,4.80
2022-12-08T02:25:50.947Z,4.77
2022-12-08T02:28:24.031Z,4.07
2022-12-08T02:30:54.060Z,4.83
2022-12-08T02:33:40.534Z,4.57
2022-12-08T02:36:24.059Z,4.23
2022-12-08T02:38:56.031Z,5.00
2022-12-08T02:41:41.265Z,6.03
2022-12-08T02:44:26.507Z,5.80
2022-12-08T02:46:55.685Z,5.10
2022-12-08T02:49:22.233Z,6.37
2022-12-08T02:51:48.554Z,5.73
2022-12-08T02:54:15.025Z,6.00
2022-12-08T02:56:49.824Z,5.70
2022-12-08T02:59:26.479Z,5.20
2022-12-08T03:02:01.589Z,5.90
2022-12-08T03:04:46.700Z,6.10
2022-12-08T03:07:24.483Z,4.60
2022-12-08T03:09:54.912Z,5.10
2022-12-08T03:12:34.204Z,5.63
2022-12-08T03:15:04.710Z,5.30
2022-12-08T03:17:31.639Z,5.20
2022-12-08T03:20:01.323Z,5.23
2022-12-08T03:22:29.143Z,5.27
2022-12-08T03:24:56.237Z,5.73
2022-12-08T03:27:24.944Z,6.77
2022-12-08T03:29:52.864Z,5.43
2022-12-08T03:32:21.052Z,4.83
2022-12-08T03:34:48.946Z,6.10
2022-12-08T03:37:15.769Z,4.80
2022-12-08T03:39:42.138Z,5.20
2022-12-08T03:42:08.539Z,6.70
2022-12-08T03:44:35.209Z,5.07
2022-12-08T03:47:01.596Z,5.43
2022-12-08T03:49:27.937Z,4.77
2022-12-08T03:51:56.607Z,5.17
2022-12-08T03:54:24.087Z,6.43
2022-12-08T03:56:50.507Z,4.37
2022-12-08T03:59:16.991Z,6.70
2022-12-08T04:01:43.424Z,5.80
2022-12-08T04:04:09.819Z,5.57
2022-12-08T04:06:36.098Z,6.13
2022-12-08T04:09:02.726Z,4.90
2022-12-08T04:11:29.141Z,5.57
2022-12-08T04:13:55.513Z,5.07
2022-12-08T04:16:23.830Z,5.37
2022-12-08T04:18:50.506Z,4.10
2022-12-08T04:21:17.050Z,4.90
2022-12-08T04:23:43.658Z,5.83
2022-12-08T04:26:10.045Z,6.13
2022-12-08T04:28:36.996Z,5.83
2022-12-08T04:31:03.937Z,5.07
2022-12-08T04:33:30.476Z,6.60
2022-12-08T04:35:56.818Z,5.53
2022-12-08T04:38:24.759Z,5.30
2022-12-08T04:40:51.894Z,5.93
2022-12-08T04:43:18.781Z,5.47
2022-12-08T04:45:45.216Z,5.10
2022-12-08T04:48:14.655Z,6.37
2022-12-08T04:50:42.510Z,5.70
2022-12-08T04:53:09.313Z,5.50
2022-12-08T04:55:39.429Z,5.17
2022-12-08T04:58:06.771Z,6.63
2022-12-08T05:00:33.516Z,4.93
2022-12-08T05:03:00.575Z,5.47
2022-12-08T05:05:27.107Z,4.43
2022-12-08T05:07:53.507Z,5.23
2022-12-08T05:10:19.923Z,6.47
2022-12-08T05:12:46.463Z,7.03
2022-12-08T05:15:12.779Z,5.10
2022-12-08T05:17:39.123Z,4.47
2022-12-08T05:20:06.167Z,5.60
2022-12-08T05:22:32.647Z,5.57
2022-12-08T05:24:59.012Z,5.00
2022-12-08T05:27:25.322Z,5.57
2022-12-08T05:29:51.724Z,5.07
2022-12-08T05:32:18.693Z,4.77
2022-12-08T05:34:44.984Z,5.73
2022-12-08T05:37:11.289Z,4.40
2022-12-08T05:39:37.737Z,5.87
2022-12-08T05:42:04.163Z,4.97
2022-12-08T05:44:30.858Z,4.83
2022-12-08T05:46:57.195Z,5.30
2022-12-08T05:49:23.691Z,4.90
2022-12-08T05:51:49.998Z,5.53
2022-12-08T05:54:16.316Z,4.50
2022-12-08T05:56:42.651Z,4.90
2022-12-08T05:59:08.973Z,5.23
2022-12-08T06:01:35.499Z,4.57
2022-12-08T06:04:02.299Z,4.73
2022-12-08T06:06:28.731Z,4.93
2022-12-08T06:08:55.024Z,5.87
2022-12-08T06:11:24.936Z,4.30
2022-12-08T06:13:51.756Z,5.57
2022-12-08T06:16:18.877Z,4.73
2022-12-08T06:18:45.586Z,4.37
2022-12-08T06:21:13.091Z,5.67
2022-12-08T06:23:39.466Z,5.10
2022-12-08T06:26:07.040Z,4.10
2022-12-08T06:28:33.438Z,5.07
2022-12-08T06:30:59.965Z,5.17
2022-12-08T06:33:26.577Z,5.53
2022-12-08T06:35:52.912Z,6.37
2022-12-08T06:38:23.005Z,4.43
2022-12-08T06:40:53.318Z,6.63
2022-12-08T06:43:19.600Z,6.10
2022-12-08T06:45:45.953Z,4.57
2022-12-08T06:48:12.248Z,4.30
2022-12-08T06:50:38.546Z,5.27
2022-12-08T06:53:05.818Z,4.63
2022-12-08T06:55:57.963Z,4.70
2022-12-08T06:58:19.202Z,4.70
2022-12-08T07:00:45.766Z,6.10
2022-12-08T07:03:12.581Z,6.63
2022-12-08T07:05:39.211Z,5.77
2022-12-08T07:08:07.090Z,5.27
2022-12-08T07:10:33.672Z,4.93
2022-12-08T07:13:00.092Z,6.20
2022-12-08T07:15:26.568Z,5.77
2022-12-08T07:17:59.362Z,4.87
2022-12-08T07:20:26.319Z,5.47
2022-12-08T07:22:52.962Z,5.40
2022-12-08T07:25:19.758Z,5.77
2022-12-08T07:27:46.079Z,4.47
2022-12-08T07:30:12.675Z,6.03
2022-12-08T07:32:39.131Z,5.57
2022-12-08T07:35:06.343Z,5.10
2022-12-08T07:37:32.969Z,6.07
2022-12-08T07:39:59.367Z,5.97
2022-12-08T07:42:25.865Z,6.63
2022-12-08T07:44:52.232Z,4.83
2022-12-08T07:47:18.532Z,5.83
2022-12-08T07:49:44.835Z,5.77
2022-12-08T07:52:11.100Z,6.47
2022-12-08T07:54:37.616Z,5.63
2022-12-08T07:57:05.936Z,6.13
2022-12-08T07:59:32.566Z,5.00
2022-12-08T08:02:21.360Z,5.43
2022-12-08T08:04:45.128Z,4.93
2022-12-08T08:07:11.492Z,5.00
2022-12-08T08:09:37.838Z,5.70
2022-12-08T08:12:29.735Z,5.13
2022-12-08T08:14:50.764Z,5.32
2022-12-08T08:17:17.130Z,6.90
2022-12-08T08:19:43.496Z,4.57
2022-12-08T08:22:09.773Z,5.93
2022-12-08T08:24:40.277Z,5.87
2022-12-08T08:27:09.441Z,5.50
2022-12-08T08:29:35.726Z,4.77
2022-12-08T08:32:02.010Z,5.70
2022-12-08T08:34:28.399Z,5.77
2022-12-08T08:36:54.747Z,5.97
2022-12-08T08:39:21.132Z,5.90
2022-12-08T08:41:47.434Z,4.83
2022-12-08T08:44:14.894Z,5.93
2022-12-08T08:46:41.502Z,5.43
2022-12-08T08:49:07.806Z,5.50
2022-12-08T08:51:34.093Z,5.27
2022-12-08T08:54:00.522Z,6.00
2022-12-08T08:56:26.838Z,5.13
2022-12-08T08:58:53.700Z,5.53
2022-12-08T09:01:24.995Z,5.50
2022-12-08T09:03:51.936Z,5.33
2022-12-08T09:06:18.773Z,4.97
2022-12-08T09:08:45.676Z,5.97
2022-12-08T09:11:12.602Z,5.07
2022-12-08T09:13:38.988Z,6.10
2022-12-08T09:16:06.506Z,5.57
2022-12-08T09:18:33.446Z,4.27
2022-12-08T09:21:07.177Z,5.00
2022-12-08T09:23:35.560Z,5.53
2022-12-08T09:26:02.798Z,5.80
2022-12-08T09:28:29.124Z,4.70
2022-12-08T09:30:55.446Z,5.20
2022-12-08T09:33:21.783Z,5.00
2022-12-08T09:35:48.039Z,5.83
2022-12-08T09:38:14.811Z,4.50
2022-12-08T09:40:49.132Z,4.37
2022-12-08T09:43:23.490Z,5.60
2022-12-08T09:45:51.828Z,4.00
2022-12-08T09:48:20.666Z,4.50
2022-12-08T09:50:52.443Z,4.53
2022-12-08T09:53:21.222Z,5.17
2022-12-08T09:55:53.498Z,4.50
2022-12-08T09:58:25.794Z,3.47
2022-12-08T10:00:52.385Z,4.20
2022-12-08T10:03:19.236Z,4.03
2022-12-08T10:05:57.439Z,4.73
2022-12-08T10:08:30.796Z,4.63
2022-12-08T10:11:09.287Z,4.30
2022-12-08T10:13:45.042Z,4.40
2022-12-08T10:16:24.263Z,4.97
2022-12-08T10:19:00.922Z,4.10
2022-12-08T10:21:28.745Z,3.90
2022-12-08T10:23:58.422Z,4.40
2022-12-08T10:26:24.806Z,3.97
2022-12-08T10:28:51.099Z,3.67
2022-12-08T10:31:18.835Z,4.63
2022-12-08T10:33:46.770Z,5.53
2022-12-08T10:36:13.344Z,3.97
2022-12-08T10:38:40.311Z,4.43
2022-12-08T10:41:09.561Z,3.70
2022-12-08T10:43:56.275Z,4.10
2022-12-08T10:46:25.912Z,4.00
2022-12-08T10:48:56.953Z,3.67
2022-12-08T10:51:35.198Z,3.60
2022-12-08T10:54:01.823Z,3.80
2022-12-08T10:56:29.394Z,3.50
2022-12-08T10:59:04.995Z,3.40
2022-12-08T11:01:36.502Z,4.63
2022-12-08T11:04:04.372Z,3.90
2022-12-08T11:06:37.931Z,2.57
2022-12-08T11:09:06.521Z,3.60
2022-12-08T11:11:43.971Z,3.70
2022-12-08T11:14:15.777Z,3.43
2022-12-08T11:16:42.940Z,3.33
2022-12-08T11:19:14.239Z,3.33
2022-12-08T11:21:42.627Z,3.83
2022-12-08T11:24:31.213Z,3.57
2022-12-08T11:27:04.364Z,3.33
2022-12-08T11:29:31.715Z,3.57
2022-12-08T11:32:04.319Z,3.87
2022-12-08T11:34:36.646Z,3.27
2022-12-08T11:37:04.847Z,3.57
2022-12-08T11:39:32.343Z,3.03
2022-12-08T11:42:01.025Z,3.13
2022-12-08T11:44:41.633Z,3.27
2022-12-08T11:47:14.809Z,3.60
2022-12-08T11:49:42.220Z,3.03
2022-12-08T11:52:27.205Z,3.63
2022-12-08T11:54:59.654Z,2.63
2022-12-08T11:57:26.937Z,2.53
2022-12-08T11:59:54.967Z,3.67
2022-12-08T12:02:23.563Z,3.30
2022-12-08T12:04:56.014Z,3.17
2022-12-08T12:07:42.811Z,3.63
2022-12-08T12:10:21.258Z,2.75
2022-12-08T12:12:50.712Z,3.60
2022-12-08T12:15:23.054Z,2.20
2022-12-08T12:17:52.406Z,3.60
2022-12-08T12:20:30.133Z,2.53
2022-12-08T12:23:19.756Z,2.67
2022-12-08T12:25:50.649Z,3.03
2022-12-08T12:28:17.954Z,3.00
2022-12-08T12:31:13.856Z,2.83
2022-12-08T12:33:42.032Z,2.93
2022-12-08T12:36:09.320Z,2.97
2022-12-08T12:39:07.615Z,2.77
2022-12-08T12:41:46.275Z,3.03
2022-12-08T12:44:12.521Z,3.00
2022-12-08T12:46:53.308Z,3.20
2022-12-08T12:49:38.035Z,4.20
2022-12-08T12:52:10.339Z,2.60
2022-12-08T12:54:41.839Z,2.43
2022-12-08T12:57:08.153Z,2.77
2022-12-08T12:59:39.962Z,2.97
2022-12-08T13:02:16.000Z,2.80
2022-12-08T13:04:44.182Z,3.38
2022-12-08T13:07:19.762Z,2.97
2022-12-08T13:09:46.151Z,3.42
2022-12-08T13:12:19.952Z,2.83
2022-12-08T13:14:49.003Z,3.13
2022-12-08T13:17:35.296Z,2.70
2022-12-08T13:20:03.412Z,2.50
2022-12-08T13:22:50.284Z,2.50
2022-12-08T13:25:37.022Z,2.58
2022-12-08T13:28:13.496Z,2.42
2022-12-08T13:30:41.644Z,2.55
2022-12-08T13:33:18.661Z,3.33
2022-12-08T13:35:47.808Z,2.70
2022-12-08T13:38:19.070Z,1.90
2022-12-08T13:40:45.930Z,2.37
2022-12-08T13:43:23.007Z,2.97
2022-12-08T13:46:48.786Z,2.13
2022-12-08T13:49:59.258Z,2.72
2022-12-08T13:57:25.792Z,1.92
2022-12-08T13:59:52.287Z,2.10
2022-12-08T14:02:27.917Z,2.03
2022-12-08T14:05:17.334Z,2.22
2022-12-08T14:07:41.918Z,1.80
2022-12-08T14:10:19.671Z,1.93
2022-12-08T14:12:47.635Z,2.27
2022-12-08T14:15:15.292Z,1.40
2022-12-08T14:17:50.319Z,2.40
2022-12-08T14:20:22.280Z,2.07
2022-12-08T14:22:50.187Z,1.60
2022-12-08T14:25:16.995Z,1.70
2022-12-08T14:27:43.949Z,2.20
2022-12-08T14:30:16.228Z,2.23
2022-12-08T14:32:44.300Z,1.63
2022-12-08T14:35:10.813Z,2.00
2022-12-08T14:37:46.114Z,1.70
2022-12-08T14:40:23.069Z,2.30
2022-12-08T14:43:05.078Z,1.73
2022-12-08T14:45:34.965Z,1.83
2022-12-08T14:48:20.695Z,1.57
2022-12-08T14:50:58.613Z,2.17
2022-12-08T14:53:25.295Z,2.23
2022-12-08T14:55:52.005Z,1.37
2022-12-08T14:58:27.826Z,2.60
2022-12-08T15:00:56.824Z,1.65
2022-12-08T15:03:27.313Z,1.87
2022-12-08T15:05:56.518Z,1.97
2022-12-08T15:08:23.145Z,2.30
2022-12-08T15:11:12.960Z,2.10
2022-12-08T15:13:44.184Z,2.23
2022-12-08T15:16:23.196Z,2.60
2022-12-08T15:19:00.706Z,2.17
2022-12-08T15:21:29.048Z,2.03
2022-12-08T15:23:55.338Z,2.20
2022-12-08T15:26:26.353Z,2.40
2022-12-08T15:28:52.712Z,3.00
2022-12-08T15:31:19.193Z,1.47
2022-12-08T15:33:45.677Z,2.63
2022-12-08T15:36:11.985Z,2.20
2022-12-08T15:38:38.738Z,1.57
2022-12-08T15:41:07.973Z,2.37
2022-12-08T15:43:36.443Z,2.40
2022-12-08T15:46:04.345Z,2.17
2022-12-08T15:48:30.981Z,2.10
2022-12-08T15:50:57.812Z,2.27
2022-12-08T15:53:24.179Z,2.20
2022-12-08T15:56:25.175Z,2.50
2022-12-08T15:58:55.269Z,2.85
2022-12-08T16:01:22.348Z,2.67
2022-12-08T16:09:32.538Z,3.30
2022-12-08T16:12:18.065Z,3.00
2022-12-08T16:15:47.369Z,3.00
2022-12-08T16:17:31.181Z,3.10
2022-12-08T16:19:57.543Z,3.17
2022-12-08T16:25:21.851Z,3.13
2022-12-08T16:28:01.427Z,3.50
2022-12-08T16:30:30.071Z,3.20
2022-12-08T16:32:57.078Z,2.87
2022-12-08T16:35:23.366Z,3.57
2022-12-08T16:37:50.128Z,3.40
2022-12-08T16:40:16.599Z,2.50
2022-12-08T16:42:47.676Z,2.70
2022-12-08T16:45:27.649Z,3.03
2022-12-08T16:47:58.610Z,3.57
2022-12-08T16:50:29.218Z,3.57
2022-12-08T16:52:56.778Z,3.10
2022-12-08T16:55:23.174Z,3.33
2022-12-08T16:57:49.612Z,4.80
2022-12-08T17:00:20.492Z,4.30
2022-12-08T17:02:47.114Z,4.47
2022-12-08T17:05:14.990Z,4.20
2022-12-08T17:07:42.294Z,4.17
2022-12-08T17:10:09.865Z,4.23
2022-12-08T17:12:36.250Z,3.50
2022-12-08T17:15:04.327Z,3.90
2022-12-08T17:17:31.735Z,3.83
2022-12-08T17:19:58.457Z,4.67
2022-12-08T17:22:24.777Z,3.90
2022-12-08T17:24:51.027Z,4.27
2022-12-08T17:27:17.435Z,4.30
2022-12-08T17:29:43.820Z,3.40
2022-12-08T17:32:10.175Z,3.87
2022-12-08T17:34:36.571Z,4.20
2022-12-08T17:37:02.966Z,4.90
2022-12-08T17:39:29.337Z,4.03
2022-12-08T17:41:55.700Z,3.50
2022-12-08T17:44:22.069Z,4.07
2022-12-08T17:46:52.469Z,3.13
2022-12-08T17:49:26.656Z,3.30
2022-12-08T17:51:54.855Z,3.73
2022-12-08T17:54:21.524Z,4.37
2022-12-08T17:56:47.851Z,3.97
2022-12-08T17:59:14.409Z,4.07
2022-12-08T18:01:40.747Z,3.67
2022-12-08T18:04:07.796Z,3.90
2022-12-08T18:06:36.740Z,4.57
2022-12-08T18:09:03.913Z,4.10
2022-12-08T18:11:30.456Z,4.07
2022-12-08T18:13:57.083Z,4.50
2022-12-08T18:16:24.892Z,4.00
2022-12-08T18:18:51.376Z,4.30
2022-12-08T18:21:23.381Z,4.13
2022-12-08T18:23:50.187Z,5.23
2022-12-08T18:26:16.837Z,4.87
2022-12-08T18:28:44.064Z,4.30
2022-12-08T18:31:14.914Z,3.33
2022-12-08T18:33:42.268Z,4.30
2022-12-08T18:36:09.489Z,3.90
2022-12-08T18:38:37.642Z,3.83
2022-12-08T18:41:08.492Z,4.17
2022-12-08T18:43:37.703Z,4.17
2022-12-08T18:46:05.128Z,3.63
2022-12-08T18:48:31.544Z,3.63
2022-12-08T18:50:57.973Z,3.97
2022-12-08T18:53:24.578Z,3.70
2022-12-08T18:55:51.077Z,3.77
2022-12-08T18:58:17.900Z,3.87
2022-12-08T19:00:44.265Z,3.27
2022-12-08T19:03:11.142Z,3.43
2022-12-08T19:05:37.610Z,4.43
2022-12-08T19:08:04.066Z,4.23
2022-12-08T19:10:32.080Z,3.80
2022-12-08T19:12:58.706Z,4.43
2022-12-08T19:15:24.996Z,4.50
2022-12-08T19:17:51.319Z,3.60
2022-12-08T19:20:17.650Z,3.40
2022-12-08T19:22:44.294Z,5.47
2022-12-08T19:25:10.967Z,4.80
2022-12-08T19:27:37.323Z,4.17
2022-12-08T19:30:07.795Z,3.10
2022-12-08T19:32:34.447Z,4.27
2022-12-08T19:35:00.892Z,4.27
2022-12-08T19:37:27.289Z,3.60
2022-12-08T19:40:12.385Z,4.20
2022-12-08T19:42:59.049Z,3.83
2022-12-08T19:45:25.718Z,4.32
2022-12-08T19:47:52.057Z,3.83
2022-12-08T19:50:36.703Z,4.13
2022-12-08T19:53:07.536Z,3.27
2022-12-08T19:55:33.975Z,3.77
2022-12-08T19:58:01.886Z,3.27
2022-12-08T20:00:29.699Z,4.27
2022-12-08T20:02:56.635Z,4.13
2022-12-08T20:05:23.248Z,4.90
2022-12-08T20:07:49.778Z,4.10
2022-12-08T20:10:18.507Z,3.30
2022-12-08T20:12:45.104Z,4.57
2022-12-08T20:15:11.782Z,4.23
2022-12-08T20:17:38.468Z,4.43
2022-12-08T20:20:07.627Z,3.90
2022-12-08T20:22:34.711Z,4.40
2022-12-08T20:25:03.505Z,3.63
2022-12-08T20:27:30.066Z,3.27
2022-12-08T20:29:56.409Z,4.03
2022-12-08T20:32:22.847Z,4.10
2022-12-08T20:34:49.159Z,3.93
2022-12-08T20:37:15.711Z,3.77
2022-12-08T20:39:42.278Z,4.37
2022-12-08T20:42:11.421Z,3.47
2022-12-08T20:44:43.162Z,3.77
2022-12-08T20:47:10.053Z,3.33
2022-12-08T20:49:36.492Z,3.73
2022-12-08T20:52:02.926Z,3.10
2022-12-08T20:54:29.497Z,2.93
2022-12-08T20:56:55.897Z,3.53
2022-12-08T20:59:22.479Z,2.83
2022-12-08T21:01:49.230Z,3.57
2022-12-08T21:04:16.018Z,4.07
2022-12-08T21:06:42.540Z,3.30
2022-12-08T21:09:09.234Z,4.30
2022-12-08T21:11:35.897Z,4.57
2022-12-08T21:14:02.781Z,3.07
2022-12-08T21:16:29.465Z,4.03
2022-12-08T21:18:55.937Z,3.27
2022-12-08T21:21:22.347Z,3.20
2022-12-08T21:23:48.918Z,4.03
2022-12-08T21:26:17.898Z,3.10
2022-12-08T21:28:46.653Z,5.03
2022-12-08T21:31:17.495Z,3.90
2022-12-08T21:33:44.468Z,3.27
2022-12-08T21:36:14.960Z,3.20
2022-12-08T21:38:41.623Z,3.40
2022-12-08T21:41:10.032Z,2.87
2022-12-08T21:43:36.405Z,3.60
2022-12-08T21:46:02.765Z,3.37
2022-12-08T21:48:29.266Z,4.30
2022-12-08T21:50:56.211Z,3.43
2022-12-08T21:53:23.055Z,3.90
2022-12-08T21:55:49.663Z,3.77
2022-12-08T21:58:16.151Z,3.40
2022-12-08T22:00:42.771Z,3.53
2022-12-08T22:03:12.982Z,4.77
2022-12-08T22:05:40.134Z,3.50
2022-12-08T22:08:06.609Z,5.10
2022-12-08T22:10:35.615Z,4.57
2022-12-08T22:13:02.213Z,4.10
2022-12-08T22:15:29.751Z,3.60
2022-12-08T22:17:56.883Z,3.80
2022-12-08T22:20:24.488Z,3.60
2022-12-08T22:22:51.149Z,4.07
2022-12-08T22:25:17.692Z,3.93
2022-12-08T22:27:44.379Z,3.20
2022-12-08T22:30:12.023Z,3.50
2022-12-08T22:32:39.234Z,4.47
2022-12-08T22:35:05.989Z,4.60
2022-12-08T22:37:32.700Z,3.97
2022-12-08T22:39:59.438Z,4.57
2022-12-08T22:42:26.647Z,4.17
2022-12-08T22:44:53.130Z,4.07
2022-12-08T22:47:19.898Z,3.97
2022-12-08T22:49:46.772Z,4.43
2022-12-08T22:52:13.240Z,4.10
2022-12-08T22:54:40.028Z,3.60
2022-12-08T22:57:09.831Z,3.93
2022-12-08T22:59:36.181Z,3.57
2022-12-08T23:02:04.104Z,4.67
2022-12-08T23:04:31.162Z,3.87
2022-12-08T23:06:58.348Z,4.63
2022-12-08T23:09:24.754Z,4.07
2022-12-08T23:11:51.422Z,4.20
2022-12-08T23:14:17.816Z,3.67
2022-12-08T23:16:44.444Z,4.50
2022-12-08T23:19:11.076Z,4.23
2022-12-08T23:21:37.964Z,6.23
2022-12-08T23:24:04.436Z,3.83
2022-12-08T23:26:32.095Z,4.03
2022-12-08T23:28:58.992Z,4.23
2022-12-08T23:31:26.249Z,3.73
2022-12-08T23:33:53.906Z,4.33
2022-12-08T23:36:21.372Z,4.43
2022-12-08T23:38:48.026Z,5.17
2022-12-08T23:41:15.109Z,3.70
2022-12-08T23:43:45.514Z,4.20
2022-12-08T23:46:12.360Z,3.90
2022-12-08T23:48:38.855Z,4.27
2022-12-08T23:51:05.507Z,4.03
2022-12-08T23:53:32.772Z,3.27
2022-12-08T23:56:03.727Z,4.20
2022-12-08T23:58:31.220Z,4.70
